UDYZ/EVN METAR and TAF weather

Enter ICAO airport designator
Station Type Date Time Source
UDYZ METAR 2019/04/25 09:30 UTC NOAA

UDYZ 250930Z VRB03KT 9999 FEW046 16/M03 Q1024 R09/010070 NOSIG


Station Type Date Time Source
UDYZ Decoded METAR 2019/04/25 09:30 UTC NOAA

Station name not available
Apr 25, 2019 - 05:30 AM EDT / 2019.04.25 0930 UTC
Wind: Variable at 3 MPH (3 KT):0
Visibility: greater than 7 mile(s):0
Sky conditions: mostly clear
Temperature: 60 F (16 C)
Dew Point: 26 F (-3 C)
Relative Humidity: 26%
Pressure (altimeter): 30.24 in. Hg (1024 hPa)
ob: UDYZ 250930Z VRB03KT 9999 FEW046 16/M03 Q1024 R09/010070 NOSIG
cycle: 9

Station Type Date Time Source
UDYZ TAF 2019/04/25 06:00 UTC NOAA

TAF UDYZ 250502Z 2506/2606 20006KT 9999 FEW040 SCT100
TEMPO 2509/2521 VRB20KT SCT040CB

Example: see airport list